createdAt,value
2019-02-04T00:00:31.085Z,81.87
2019-02-04T00:01:31.102Z,81.35
2019-02-04T00:02:31.068Z,81.45
2019-02-04T00:03:31.077Z,81.35
2019-02-04T00:04:31.048Z,81.35
2019-02-04T00:05:31.029Z,81.45
2019-02-04T00:06:31.052Z,81.24
2019-02-04T00:07:31.012Z,81.24
2019-02-04T00:08:31.004Z,82.39
2019-02-04T00:09:31.047Z,81.24
2019-02-04T00:10:30.988Z,81.13
2019-02-04T00:11:31.009Z,81.35
2019-02-04T00:12:30.962Z,80.93
2019-02-04T00:13:30.955Z,81.35
2019-02-04T00:14:30.942Z,81.13
2019-02-04T00:15:30.950Z,81.35
2019-02-04T00:16:40.621Z,80.93
2019-02-04T00:17:31.903Z,81.03
2019-02-04T00:18:30.893Z,81.13
2019-02-04T00:19:30.883Z,81.13
2019-02-04T00:20:30.877Z,81.18
2019-02-04T00:21:30.867Z,81.45
2019-02-04T00:22:30.881Z,81.24
2019-02-04T00:23:30.841Z,81.56
2019-02-04T00:24:30.825Z,81.45
2019-02-04T00:25:30.834Z,82.50
2019-02-04T00:26:30.827Z,82.01
2019-02-04T00:27:30.799Z,81.45
2019-02-04T00:28:30.794Z,81.90
2019-02-04T00:29:30.782Z,82.50
2019-02-04T00:30:30.765Z,81.45
2019-02-04T00:31:30.815Z,81.07
2019-02-04T00:32:30.762Z,81.38
2019-02-04T00:33:30.734Z,81.49
2019-02-04T00:34:30.732Z,82.32
2019-02-04T00:35:30.717Z,82.12
2019-02-04T00:36:30.705Z,82.22
2019-02-04T00:37:30.748Z,82.22
2019-02-04T00:38:30.720Z,82.22
2019-02-04T00:39:30.699Z,82.29
2019-02-04T00:40:30.684Z,82.43
2019-02-04T00:41:30.676Z,81.56
2019-02-04T00:42:30.660Z,82.53
2019-02-04T00:43:30.647Z,82.12
2019-02-04T00:44:30.620Z,82.32
2019-02-04T00:45:30.602Z,81.45
2019-02-04T00:46:30.593Z,81.13
2019-02-04T00:47:30.582Z,82.12
2019-02-04T00:48:30.636Z,82.12
2019-02-04T00:49:30.564Z,82.12
2019-02-04T00:50:30.551Z,82.60
2019-02-04T00:51:30.539Z,82.12
2019-02-04T00:52:30.530Z,82.32
2019-02-04T00:53:30.542Z,81.90
2019-02-04T00:54:30.534Z,81.70
2019-02-04T00:55:30.507Z,81.80
2019-02-04T00:56:30.514Z,81.90
2019-02-04T00:57:30.476Z,82.53
2019-02-04T00:58:30.475Z,82.22
2019-02-04T00:59:30.494Z,82.67
2019-02-04T01:00:30.438Z,82.32
2019-02-04T01:01:30.433Z,82.46
2019-02-04T01:02:30.436Z,82.74
2019-02-04T01:03:30.404Z,82.22
2019-02-04T01:04:30.400Z,81.70
2019-02-04T01:05:30.447Z,82.12
2019-02-04T01:06:30.374Z,82.53
2019-02-04T01:07:30.371Z,82.32
2019-02-04T01:08:30.358Z,82.36
2019-02-04T01:09:30.390Z,82.01
2019-02-04T01:10:30.361Z,82.22
2019-02-04T01:11:30.326Z,82.32
2019-02-04T01:12:30.329Z,82.22
2019-02-04T01:13:30.304Z,82.46
2019-02-04T01:14:30.294Z,82.26
2019-02-04T01:15:30.306Z,82.99
2019-02-04T01:16:30.286Z,82.89
2019-02-04T01:17:30.259Z,83.20
2019-02-04T01:18:30.244Z,83.30
2019-02-04T01:19:30.242Z,83.62
2019-02-04T01:20:30.252Z,83.62
2019-02-04T01:21:30.240Z,83.30
2019-02-04T01:22:30.231Z,83.51
2019-02-04T01:23:30.205Z,83.09
2019-02-04T01:24:30.184Z,83.51
2019-02-04T01:25:30.198Z,83.40
2019-02-04T01:26:30.161Z,83.83
2019-02-04T01:27:30.211Z,83.83
2019-02-04T01:28:30.142Z,83.62
2019-02-04T01:29:30.130Z,83.72
2019-02-04T01:30:30.129Z,83.51
2019-02-04T01:31:30.112Z,83.47
2019-02-04T01:32:30.115Z,83.37
2019-02-04T01:33:30.161Z,83.72
2019-02-04T01:34:30.087Z,83.68
2019-02-04T01:35:30.121Z,83.78
2019-02-04T01:36:30.071Z,83.26
2019-02-04T01:37:30.053Z,83.62
2019-02-04T01:38:30.075Z,84.20
2019-02-04T01:39:30.065Z,84.03
2019-02-04T01:40:30.010Z,84.10
2019-02-04T01:41:30.002Z,84.00
2019-02-04T01:42:30.036Z,84.00
2019-02-04T01:43:30.473Z,84.31
2019-02-04T01:44:29.971Z,84.10
2019-02-04T01:45:29.958Z,84.00
2019-02-04T01:46:29.953Z,84.20
2019-02-04T01:47:29.936Z,84.00
2019-02-04T01:48:29.924Z,84.31
2019-02-04T01:49:29.963Z,84.20
2019-02-04T01:50:29.910Z,85.29
2019-02-04T01:51:29.890Z,85.25
2019-02-04T01:52:29.899Z,85.25
2019-02-04T01:53:29.873Z,84.94
2019-02-04T01:54:29.859Z,85.14
2019-02-04T01:55:29.873Z,85.14
2019-02-04T01:56:29.835Z,85.35
2019-02-04T01:57:29.846Z,85.29
2019-02-04T01:58:29.840Z,84.77
2019-02-04T01:59:29.827Z,85.08
2019-02-04T02:00:29.797Z,84.83
2019-02-04T02:01:29.782Z,85.08
2019-02-04T02:02:29.826Z,85.50
2019-02-04T02:03:29.775Z,85.50
2019-02-04T02:04:29.745Z,85.50
2019-02-04T02:05:29.739Z,85.39
2019-02-04T02:06:29.738Z,85.71
2019-02-04T02:07:29.714Z,86.02
2019-02-04T02:08:29.727Z,85.60
2019-02-04T02:09:29.697Z,85.50
2019-02-04T02:10:29.771Z,85.60
2019-02-04T02:11:29.675Z,85.29
2019-02-04T02:12:29.666Z,85.18
2019-02-04T02:13:29.652Z,85.60
2019-02-04T02:14:29.643Z,85.60
2019-02-04T02:15:29.654Z,85.91
2019-02-04T02:16:29.646Z,86.02
2019-02-04T02:17:29.609Z,86.13
2019-02-04T02:18:29.600Z,86.13
2019-02-04T02:19:29.679Z,86.65
2019-02-04T02:20:29.584Z,86.85
2019-02-04T02:21:29.619Z,86.47
2019-02-04T02:22:29.558Z,86.65
2019-02-04T02:23:29.547Z,86.44
2019-02-04T02:24:29.535Z,86.75
2019-02-04T02:25:29.518Z,86.54
2019-02-04T02:26:29.512Z,86.44
2019-02-04T02:27:29.530Z,86.23
2019-02-04T02:28:29.490Z,86.33
2019-02-04T02:29:29.473Z,86.75
2019-02-04T02:30:29.468Z,86.33
2019-02-04T02:31:29.454Z,86.75
2019-02-04T02:32:29.494Z,87.07
2019-02-04T02:33:29.485Z,87.38
2019-02-04T02:34:29.419Z,87.07
2019-02-04T02:35:29.437Z,87.48
2019-02-04T02:36:29.396Z,87.80
2019-02-04T02:37:29.390Z,87.38
2019-02-04T02:38:29.412Z,87.17
2019-02-04T02:39:29.366Z,87.59
2019-02-04T02:40:29.353Z,87.27
2019-02-04T02:41:29.338Z,87.27
2019-02-04T02:42:29.354Z,87.10
2019-02-04T02:43:29.344Z,87.38
2019-02-04T02:44:29.363Z,87.17
2019-02-04T02:45:29.305Z,87.59
2019-02-04T02:46:29.284Z,87.63
2019-02-04T02:47:38.176Z,87.17
2019-02-04T02:48:30.293Z,87.80
2019-02-04T02:49:29.255Z,87.38
2019-02-04T02:50:29.272Z,87.63
2019-02-04T02:51:29.234Z,87.59
2019-02-04T02:52:29.241Z,87.07
2019-02-04T02:53:29.265Z,87.80
2019-02-04T02:54:29.196Z,87.69
2019-02-04T02:55:29.190Z,87.59
2019-02-04T02:56:29.212Z,87.59
2019-02-04T02:57:29.163Z,87.80
2019-02-04T02:58:29.233Z,87.38
2019-02-04T02:59:29.169Z,87.69
2019-02-04T03:00:29.142Z,87.69
2019-02-04T03:01:29.166Z,87.59
2019-02-04T03:02:29.118Z,87.80
2019-02-04T03:03:29.106Z,87.48
2019-02-04T03:04:29.101Z,87.80
2019-02-04T03:05:29.077Z,87.63
2019-02-04T03:06:29.117Z,87.90
2019-02-04T03:07:29.060Z,87.59
2019-02-04T03:08:29.040Z,87.90
2019-02-04T03:09:29.039Z,87.59
2019-02-04T03:10:29.030Z,87.59
2019-02-04T03:11:29.014Z,87.59
2019-02-04T03:12:29.036Z,88.01
2019-02-04T03:13:28.985Z,87.69
2019-02-04T03:14:28.980Z,87.59
2019-02-04T03:15:28.967Z,87.69
2019-02-04T03:16:28.982Z,88.01
2019-02-04T03:17:28.959Z,88.01
2019-02-04T03:18:28.968Z,88.21
2019-02-04T03:19:28.921Z,88.11
2019-02-04T03:20:28.957Z,88.32
2019-02-04T03:21:28.898Z,88.21
2019-02-04T03:22:28.889Z,87.80
2019-02-04T03:23:28.885Z,87.80
2019-02-04T03:24:28.870Z,87.52
2019-02-04T03:25:28.865Z,88.11
2019-02-04T03:26:28.940Z,87.73
2019-02-04T03:27:28.845Z,87.90
2019-02-04T03:28:28.818Z,88.01
2019-02-04T03:29:28.814Z,88.32
2019-02-04T03:30:28.825Z,88.32
2019-02-04T03:31:28.814Z,88.21
2019-02-04T03:32:28.781Z,87.80
2019-02-04T03:33:28.771Z,87.90
2019-02-04T03:34:28.753Z,88.21
2019-02-04T03:35:28.762Z,87.90
2019-02-04T03:36:28.752Z,87.59
2019-02-04T03:37:28.750Z,87.59
2019-02-04T03:38:28.711Z,87.38
2019-02-04T03:39:28.699Z,87.90
2019-02-04T03:40:28.699Z,87.69
2019-02-04T03:41:28.711Z,87.80
2019-02-04T03:42:28.679Z,87.59
2019-02-04T03:43:28.652Z,87.48
2019-02-04T03:44:28.645Z,87.65
2019-02-04T03:45:28.635Z,87.07
2019-02-04T03:46:28.662Z,87.55
2019-02-04T03:47:28.610Z,87.48
2019-02-04T03:48:28.601Z,87.27
2019-02-04T03:49:28.687Z,87.13
2019-02-04T03:50:28.580Z,87.34
2019-02-04T03:51:28.571Z,87.23
2019-02-04T03:52:28.559Z,87.48
2019-02-04T03:53:28.545Z,87.45
2019-02-04T03:54:28.559Z,87.17
2019-02-04T03:55:28.530Z,87.45
2019-02-04T03:56:28.518Z,87.59
2019-02-04T03:57:28.509Z,87.80
2019-02-04T03:58:28.549Z,87.80
2019-02-04T03:59:28.483Z,87.69
2019-02-04T04:00:28.489Z,87.48
2019-02-04T04:01:28.461Z,87.80
2019-02-04T04:02:28.450Z,87.59
2019-02-04T04:03:28.438Z,87.59
2019-02-04T04:04:28.453Z,88.11
2019-02-04T04:05:28.416Z,88.21
2019-02-04T04:06:28.405Z,87.69
2019-02-04T04:07:28.397Z,88.21
2019-02-04T04:08:28.437Z,88.21
2019-02-04T04:09:28.367Z,88.28
2019-02-04T04:10:28.363Z,87.48
2019-02-04T04:11:28.346Z,87.59
2019-02-04T04:12:28.358Z,87.69
2019-02-04T04:13:28.324Z,87.59
2019-02-04T04:14:28.342Z,87.80
2019-02-04T04:15:28.307Z,87.90
2019-02-04T04:16:28.296Z,87.90
2019-02-04T04:17:28.283Z,87.69
2019-02-04T04:18:28.268Z,88.32
2019-02-04T04:19:28.259Z,87.69
2019-02-04T04:20:28.286Z,88.21
2019-02-04T04:21:28.240Z,88.11
2019-02-04T04:22:28.273Z,88.32
2019-02-04T04:23:28.226Z,88.84
2019-02-04T04:24:28.211Z,88.53
2019-02-04T04:25:28.281Z,88.53
2019-02-04T04:26:28.192Z,88.42
2019-02-04T04:27:28.172Z,88.32
2019-02-04T04:28:28.195Z,88.32
2019-02-04T04:29:28.149Z,88.01
2019-02-04T04:30:28.154Z,88.42
2019-02-04T04:31:28.158Z,88.07
2019-02-04T04:32:30.033Z,87.65
2019-02-04T04:33:28.117Z,87.65
2019-02-04T04:34:28.104Z,87.76
2019-02-04T04:35:28.087Z,87.71
2019-02-04T04:36:28.080Z,87.55
2019-02-04T04:37:28.086Z,88.07
2019-02-04T04:38:28.054Z,87.45
2019-02-04T04:39:28.043Z,88.07
2019-02-04T04:40:28.030Z,87.65
2019-02-04T04:41:28.030Z,88.17
2019-02-04T04:42:28.047Z,87.55
2019-02-04T04:43:28.001Z,87.96
2019-02-04T04:44:27.989Z,88.07
2019-02-04T04:45:28.080Z,87.76
2019-02-04T04:46:27.962Z,88.17
2019-02-04T04:47:27.955Z,87.96
2019-02-04T04:48:27.965Z,87.76
2019-02-04T04:49:27.942Z,87.69
2019-02-04T04:50:27.935Z,88.17
2019-02-04T04:51:27.925Z,87.80
2019-02-04T04:52:27.898Z,88.21
2019-02-04T04:53:27.914Z,88.21
2019-02-04T04:54:27.912Z,88.21
2019-02-04T04:55:27.871Z,88.64
2019-02-04T04:56:27.853Z,88.74
2019-02-04T04:57:27.845Z,88.74
2019-02-04T04:58:27.889Z,88.74
2019-02-04T04:59:27.829Z,88.64
2019-02-04T05:00:27.813Z,88.01
2019-02-04T05:01:27.805Z,88.39
2019-02-04T05:02:27.799Z,88.21
2019-02-04T05:03:27.786Z,88.21
2019-02-04T05:04:27.793Z,88.28
2019-02-04T05:05:27.751Z,87.86
2019-02-04T05:06:27.740Z,88.17
2019-02-04T05:07:27.731Z,88.17
2019-02-04T05:08:27.716Z,88.17
2019-02-04T05:09:27.741Z,87.65
2019-02-04T05:10:27.735Z,88.07
2019-02-04T05:11:27.755Z,87.96
2019-02-04T05:12:27.789Z,88.01
2019-02-04T05:13:27.676Z,88.07
2019-02-04T05:14:27.651Z,87.96
2019-02-04T05:15:27.641Z,87.65
2019-02-04T05:16:27.652Z,87.86
2019-02-04T05:17:27.620Z,87.76
2019-02-04T05:18:37.466Z,87.34
2019-02-04T05:19:28.604Z,87.02
2019-02-04T05:20:27.615Z,87.19
2019-02-04T05:21:27.574Z,86.99
2019-02-04T05:22:27.567Z,87.19
2019-02-04T05:23:27.553Z,87.09
2019-02-04T05:24:27.547Z,86.36
2019-02-04T05:25:27.561Z,86.25
2019-02-04T05:26:27.577Z,85.94
2019-02-04T05:27:27.512Z,85.69
2019-02-04T05:28:27.504Z,85.80
2019-02-04T05:29:27.482Z,85.31
2019-02-04T05:30:27.485Z,85.63
2019-02-04T05:31:27.487Z,85.21
2019-02-04T05:32:27.489Z,85.63
2019-02-04T05:33:27.466Z,85.63
2019-02-04T05:34:27.472Z,85.83
2019-02-04T05:35:27.441Z,85.49
2019-02-04T05:36:27.413Z,85.73
2019-02-04T05:37:27.446Z,85.83
2019-02-04T05:38:27.389Z,85.52
2019-02-04T05:39:27.374Z,85.63
2019-02-04T05:40:27.371Z,85.73
2019-02-04T05:41:27.350Z,85.73
2019-02-04T05:42:27.342Z,85.94
2019-02-04T05:43:27.399Z,85.83
2019-02-04T05:44:27.323Z,85.42
2019-02-04T05:45:27.311Z,85.73
2019-02-04T05:46:27.310Z,85.63
2019-02-04T05:47:27.293Z,85.83
2019-02-04T05:48:27.272Z,85.73
2019-02-04T05:49:27.292Z,85.69
2019-02-04T05:50:27.251Z,85.63
2019-02-04T05:51:27.241Z,85.06
2019-02-04T05:52:27.235Z,85.49
2019-02-04T05:53:27.223Z,85.27
2019-02-04T05:54:27.260Z,85.17
2019-02-04T05:55:27.202Z,85.11
2019-02-04T05:56:27.195Z,84.58
2019-02-04T05:57:27.187Z,85.42
2019-02-04T05:58:27.176Z,85.52
2019-02-04T05:59:27.158Z,85.63
2019-02-04T06:00:27.170Z,85.73
2019-02-04T06:01:27.134Z,85.73
2019-02-04T06:02:27.124Z,85.73
2019-02-04T06:03:27.138Z,85.63
2019-02-04T06:04:27.185Z,85.06
2019-02-04T06:05:27.092Z,85.17
2019-02-04T06:06:27.082Z,85.06
2019-02-04T06:07:27.069Z,85.27
2019-02-04T06:08:27.071Z,85.38
2019-02-04T06:09:27.047Z,85.06
2019-02-04T06:10:27.066Z,85.17
2019-02-04T06:11:27.021Z,84.34
2019-02-04T06:12:27.017Z,84.23
2019-02-04T06:13:27.009Z,83.92
2019-02-04T06:14:27.042Z,84.44
2019-02-04T06:15:26.988Z,84.34
2019-02-04T06:16:26.973Z,84.34
2019-02-04T06:17:27.067Z,83.29
2019-02-04T06:18:26.970Z,83.71
2019-02-04T06:19:26.942Z,83.81
2019-02-04T06:20:26.959Z,84.12
2019-02-04T06:21:26.912Z,84.12
2019-02-04T06:22:26.933Z,84.23
2019-02-04T06:23:26.890Z,84.34
2019-02-04T06:24:26.905Z,83.81
2019-02-04T06:25:26.908Z,83.71
2019-02-04T06:26:26.865Z,84.12
2019-02-04T06:27:26.853Z,84.02
2019-02-04T06:28:26.860Z,83.98
2019-02-04T06:29:26.825Z,84.09
2019-02-04T06:30:26.859Z,83.98
2019-02-04T06:31:26.803Z,83.47
2019-02-04T06:32:26.798Z,83.47
2019-02-04T06:33:26.789Z,83.61
2019-02-04T06:34:26.772Z,83.36
2019-02-04T06:35:26.827Z,83.40
2019-02-04T06:36:26.750Z,83.67
2019-02-04T06:37:26.745Z,83.81
2019-02-04T06:38:26.734Z,83.40
2019-02-04T06:39:26.722Z,83.81
2019-02-04T06:40:26.711Z,84.06
2019-02-04T06:41:26.718Z,84.38
2019-02-04T06:42:26.687Z,85.14
2019-02-04T06:43:26.683Z,85.04
2019-02-04T06:44:26.670Z,84.94
2019-02-04T06:45:26.656Z,85.00
2019-02-04T06:46:26.681Z,85.11
2019-02-04T06:47:26.633Z,85.21
2019-02-04T06:48:26.622Z,85.21
2019-02-04T06:49:26.607Z,84.89
2019-02-04T06:50:26.613Z,85.00
2019-02-04T06:51:26.593Z,84.62
2019-02-04T06:52:26.614Z,84.52
2019-02-04T06:53:26.569Z,85.46
2019-02-04T06:54:26.561Z,84.94
2019-02-04T06:55:26.552Z,85.04
2019-02-04T06:56:26.537Z,85.67
2019-02-04T06:57:26.655Z,85.46
2019-02-04T06:58:26.513Z,85.77
2019-02-04T06:59:26.519Z,85.77
2019-02-04T07:00:26.495Z,85.71
2019-02-04T07:01:26.485Z,86.19
2019-02-04T07:02:26.468Z,85.88
2019-02-04T07:03:26.536Z,85.88
2019-02-04T07:04:26.452Z,85.88
2019-02-04T07:05:26.442Z,85.35
2019-02-04T07:06:26.431Z,85.77
2019-02-04T07:07:26.414Z,85.77
2019-02-04T07:08:26.412Z,85.52
2019-02-04T07:09:26.430Z,85.00
2019-02-04T07:10:26.392Z,85.52
2019-02-04T07:11:26.388Z,84.69
2019-02-04T07:12:26.364Z,85.00
2019-02-04T07:13:26.354Z,85.04
2019-02-04T07:14:26.368Z,85.52
2019-02-04T07:15:26.350Z,85.35
2019-02-04T07:16:26.319Z,85.52
2019-02-04T07:17:26.335Z,84.94
2019-02-04T07:18:26.319Z,85.46
2019-02-04T07:19:26.341Z,85.63
2019-02-04T07:20:26.274Z,85.21
2019-02-04T07:21:26.269Z,85.11
2019-02-04T07:22:26.271Z,85.31
2019-02-04T07:23:26.243Z,84.48
2019-02-04T07:24:26.234Z,85.11
2019-02-04T07:25:26.244Z,85.21
2019-02-04T07:26:26.220Z,85.11
2019-02-04T07:27:26.202Z,85.11
2019-02-04T07:28:26.194Z,84.89
2019-02-04T07:29:26.176Z,85.00
2019-02-04T07:30:26.194Z,85.42
2019-02-04T07:31:26.160Z,85.00
2019-02-04T07:32:26.149Z,84.75
2019-02-04T07:33:26.136Z,84.27
2019-02-04T07:34:26.128Z,84.17
2019-02-04T07:35:26.137Z,84.06
2019-02-04T07:36:26.110Z,84.58
2019-02-04T07:37:26.090Z,84.48
2019-02-04T07:38:26.088Z,84.27
2019-02-04T07:39:26.076Z,85.21
2019-02-04T07:40:26.110Z,85.21
2019-02-04T07:41:26.056Z,85.21
2019-02-04T07:42:26.057Z,85.21
2019-02-04T07:43:26.027Z,85.21
2019-02-04T07:44:26.028Z,85.00
2019-02-04T07:45:26.009Z,85.21
2019-02-04T07:46:26.022Z,85.21
2019-02-04T07:47:26.000Z,85.21
2019-02-04T07:48:25.974Z,84.89
2019-02-04T07:49:35.086Z,84.89
2019-02-04T07:50:26.968Z,85.06
2019-02-04T07:51:25.986Z,85.11
2019-02-04T07:52:25.936Z,85.06
2019-02-04T07:53:25.923Z,84.34
2019-02-04T07:54:25.910Z,84.17
2019-02-04T07:55:25.911Z,84.23
2019-02-04T07:56:26.039Z,85.31
2019-02-04T07:57:25.885Z,84.89
2019-02-04T07:58:25.875Z,85.11
2019-02-04T07:59:25.872Z,85.00
2019-02-04T08:00:25.847Z,84.79
2019-02-04T08:01:25.852Z,84.89
2019-02-04T08:02:25.873Z,84.69
2019-02-04T08:03:25.822Z,85.52
2019-02-04T08:04:25.819Z,85.42
2019-02-04T08:05:25.793Z,85.63
2019-02-04T08:06:25.795Z,85.17
2019-02-04T08:07:25.795Z,84.75
2019-02-04T08:08:25.793Z,85.06
2019-02-04T08:09:25.751Z,85.11
2019-02-04T08:10:25.739Z,84.79
2019-02-04T08:11:25.730Z,85.00
2019-02-04T08:12:25.714Z,84.89
2019-02-04T08:13:25.742Z,85.21
2019-02-04T08:14:25.693Z,85.31
2019-02-04T08:15:25.682Z,85.73
2019-02-04T08:16:25.671Z,85.31
2019-02-04T08:17:25.695Z,85.27
2019-02-04T08:18:25.674Z,85.11
2019-02-04T08:19:25.644Z,85.00
2019-02-04T08:20:25.638Z,85.31
2019-02-04T08:21:25.618Z,85.00
2019-02-04T08:22:25.611Z,85.00
2019-02-04T08:23:25.666Z,84.79
2019-02-04T08:24:25.596Z,85.00
2019-02-04T08:25:26.047Z,85.52
2019-02-04T08:26:25.568Z,85.21
2019-02-04T08:27:25.558Z,84.96
2019-02-04T08:28:25.542Z,84.69
2019-02-04T08:29:25.558Z,85.21
2019-02-04T08:30:25.538Z,85.06
2019-02-04T08:31:25.548Z,85.59
2019-02-04T08:32:25.506Z,84.86
2019-02-04T08:33:25.506Z,84.86
2019-02-04T08:34:25.547Z,85.27
2019-02-04T08:35:25.474Z,85.38
2019-02-04T08:36:25.460Z,84.12
2019-02-04T08:37:25.456Z,84.23
2019-02-04T08:38:25.438Z,84.34
2019-02-04T08:39:25.438Z,84.34
2019-02-04T08:40:25.450Z,84.34
2019-02-04T08:41:25.416Z,84.23
2019-02-04T08:42:25.402Z,84.02
2019-02-04T08:43:25.389Z,84.12
2019-02-04T08:44:25.372Z,84.44
2019-02-04T08:45:25.413Z,83.36
2019-02-04T08:46:25.354Z,84.02
2019-02-04T08:47:25.360Z,83.88
2019-02-04T08:48:25.335Z,83.47
2019-02-04T08:49:25.319Z,83.36
2019-02-04T08:50:25.312Z,83.25
2019-02-04T08:51:25.331Z,83.57
2019-02-04T08:52:25.285Z,83.36
2019-02-04T08:53:25.274Z,83.57
2019-02-04T08:54:25.274Z,83.32
2019-02-04T08:55:25.260Z,82.80
2019-02-04T08:56:25.272Z,82.84
2019-02-04T08:57:25.259Z,82.17
2019-02-04T08:58:25.226Z,82.48
2019-02-04T08:59:25.219Z,82.38
2019-02-04T09:00:25.229Z,81.86
2019-02-04T09:01:25.216Z,82.28
2019-02-04T09:02:25.212Z,82.21
2019-02-04T09:03:25.174Z,83.42
2019-02-04T09:04:25.166Z,82.80
2019-02-04T09:05:25.151Z,82.80
2019-02-04T09:06:25.144Z,82.48
2019-02-04T09:07:25.199Z,81.86
2019-02-04T09:08:25.149Z,82.07
2019-02-04T09:09:25.099Z,81.65
2019-02-04T09:10:25.116Z,81.86
2019-02-04T09:11:25.090Z,81.65
2019-02-04T09:12:25.090Z,81.55
2019-02-04T09:13:25.093Z,81.76
2019-02-04T09:14:25.066Z,81.93
2019-02-04T09:15:25.083Z,81.76
2019-02-04T09:16:25.029Z,81.62
2019-02-04T09:17:25.017Z,81.86
2019-02-04T09:18:25.034Z,81.23
2019-02-04T09:19:24.994Z,82.14
2019-02-04T09:20:24.994Z,82.14
2019-02-04T09:21:24.990Z,81.41
2019-02-04T09:22:24.973Z,80.88
2019-02-04T09:23:24.982Z,81.20
2019-02-04T09:24:24.970Z,81.16
2019-02-04T09:25:24.946Z,80.64
2019-02-04T09:26:24.918Z,81.16
2019-02-04T09:27:24.907Z,81.16
2019-02-04T09:28:24.941Z,80.85
2019-02-04T09:29:24.895Z,80.85
2019-02-04T09:30:24.941Z,80.64
2019-02-04T09:31:24.866Z,80.22
2019-02-04T09:32:24.858Z,80.43
2019-02-04T09:33:24.839Z,80.85
2019-02-04T09:34:24.866Z,81.16
2019-02-04T09:35:24.825Z,80.54
2019-02-04T09:36:24.844Z,80.64
2019-02-04T09:37:24.804Z,80.74
2019-02-04T09:38:24.784Z,80.60
2019-02-04T09:39:24.816Z,81.02
2019-02-04T09:40:24.767Z,80.40
2019-02-04T09:41:24.766Z,80.40
2019-02-04T09:42:24.781Z,79.94
2019-02-04T09:43:24.740Z,79.52
2019-02-04T09:44:24.779Z,79.42
2019-02-04T09:45:27.610Z,79.63
2019-02-04T09:46:24.703Z,79.63
2019-02-04T09:47:24.690Z,79.52
2019-02-04T09:48:24.710Z,78.90
2019-02-04T09:49:24.666Z,79.11
2019-02-04T09:50:24.685Z,79.00
2019-02-04T09:51:24.641Z,78.90
2019-02-04T09:52:24.634Z,78.69
2019-02-04T09:53:24.643Z,79.59
2019-02-04T09:54:24.612Z,78.80
2019-02-04T09:55:24.661Z,79.07
2019-02-04T09:56:24.602Z,78.34
2019-02-04T09:57:24.575Z,78.45
2019-02-04T09:58:24.572Z,78.24
2019-02-04T09:59:24.562Z,77.40
2019-02-04T10:00:24.545Z,77.61
2019-02-04T10:01:24.558Z,77.79
2019-02-04T10:02:24.528Z,77.06
2019-02-04T10:03:24.557Z,76.95
2019-02-04T10:04:24.510Z,76.85
2019-02-04T10:05:24.500Z,77.27
2019-02-04T10:06:24.487Z,76.51
2019-02-04T10:07:24.476Z,76.51
2019-02-04T10:08:24.490Z,76.72
2019-02-04T10:09:24.453Z,76.40
2019-02-04T10:10:24.445Z,76.51
2019-02-04T10:11:24.466Z,76.51
2019-02-04T10:12:24.423Z,76.92
2019-02-04T10:13:24.403Z,76.92
2019-02-04T10:14:24.551Z,76.57
2019-02-04T10:15:24.399Z,75.32
2019-02-04T10:16:24.404Z,75.43
2019-02-04T10:17:24.389Z,75.64
2019-02-04T10:18:24.379Z,75.19
2019-02-04T10:19:24.362Z,75.81
2019-02-04T10:20:33.494Z,74.98
2019-02-04T10:21:25.346Z,74.77
2019-02-04T10:22:24.347Z,74.67
2019-02-04T10:23:24.319Z,74.53
2019-02-04T10:24:24.327Z,74.46
2019-02-04T10:25:24.277Z,73.94
2019-02-04T10:26:24.318Z,74.15
2019-02-04T10:27:24.280Z,74.05
2019-02-04T10:28:24.262Z,74.15
2019-02-04T10:29:24.259Z,73.46
2019-02-04T10:30:24.224Z,74.08
2019-02-04T10:31:24.222Z,73.56
2019-02-04T10:32:24.284Z,74.49
2019-02-04T10:33:24.200Z,74.49
2019-02-04T10:34:24.230Z,74.80
2019-02-04T10:35:24.206Z,74.70
2019-02-04T10:36:24.179Z,74.49
2019-02-04T10:37:24.194Z,73.32
2019-02-04T10:38:24.237Z,73.56
2019-02-04T10:39:24.156Z,74.05
2019-02-04T10:40:24.154Z,74.05
2019-02-04T10:41:24.104Z,74.11
2019-02-04T10:42:24.105Z,73.91
2019-02-04T10:43:24.117Z,73.28
2019-02-04T10:44:24.131Z,73.39
2019-02-04T10:45:24.119Z,73.08
2019-02-04T10:46:24.091Z,73.39
2019-02-04T10:47:24.067Z,73.60
2019-02-04T10:48:24.026Z,73.60
2019-02-04T10:49:24.038Z,73.60
2019-02-04T10:50:24.009Z,73.46
2019-02-04T10:51:23.995Z,72.74
2019-02-04T10:52:23.995Z,72.11
2019-02-04T10:53:23.970Z,72.01
2019-02-04T10:54:24.020Z,72.74
2019-02-04T10:55:23.952Z,72.45
2019-02-04T10:56:23.938Z,72.01
2019-02-04T10:57:23.926Z,71.18
2019-02-04T10:58:23.929Z,71.08
2019-02-04T10:59:23.950Z,71.28
2019-02-04T11:00:23.928Z,70.56
2019-02-04T11:01:23.942Z,71.08
2019-02-04T11:02:23.892Z,71.45
2019-02-04T11:03:23.871Z,70.73
2019-02-04T11:04:23.868Z,70.52
2019-02-04T11:05:23.846Z,70.42
2019-02-04T11:06:23.914Z,70.94
2019-02-04T11:07:23.814Z,70.83
2019-02-04T11:08:23.846Z,70.73
2019-02-04T11:09:23.834Z,70.73
2019-02-04T11:10:23.797Z,70.83
2019-02-04T11:11:23.766Z,69.93
2019-02-04T11:12:23.795Z,70.31
2019-02-04T11:13:23.755Z,70.56
2019-02-04T11:14:23.780Z,70.62
2019-02-04T11:15:25.583Z,70.21
2019-02-04T11:16:23.777Z,70.31
2019-02-04T11:17:23.730Z,70.07
2019-02-04T11:18:23.704Z,69.66
2019-02-04T11:19:23.686Z,68.93
2019-02-04T11:20:23.754Z,69.35
2019-02-04T11:21:23.688Z,69.35
2019-02-04T11:22:23.713Z,69.45
2019-02-04T11:23:23.667Z,69.35
2019-02-04T11:24:23.661Z,69.56
2019-02-04T11:25:23.643Z,69.11
2019-02-04T11:26:23.642Z,68.73
2019-02-04T11:27:23.642Z,69.14
2019-02-04T11:28:23.633Z,69.11
2019-02-04T11:29:23.600Z,69.76
2019-02-04T11:30:23.588Z,69.97
2019-02-04T11:31:23.569Z,69.97
2019-02-04T11:32:23.543Z,70.28
2019-02-04T11:33:23.600Z,69.87
2019-02-04T11:34:23.620Z,69.66
2019-02-04T11:35:23.510Z,70.07
2019-02-04T11:36:23.542Z,69.56
2019-02-04T11:37:23.532Z,69.56
2019-02-04T11:38:23.476Z,68.31
2019-02-04T11:39:23.500Z,68.10
2019-02-04T11:40:23.459Z,68.28
2019-02-04T11:41:23.539Z,68.00
2019-02-04T11:42:23.456Z,67.97
2019-02-04T11:43:23.466Z,67.14
2019-02-04T11:44:23.416Z,67.24
2019-02-04T11:45:23.417Z,67.27
2019-02-04T11:46:23.393Z,67.76
2019-02-04T11:47:23.370Z,68.18
2019-02-04T11:48:23.410Z,68.28
2019-02-04T11:49:23.404Z,67.14
2019-02-04T11:50:23.361Z,67.14
2019-02-04T11:51:23.337Z,67.52
2019-02-04T11:52:23.326Z,67.21
2019-02-04T11:53:32.199Z,67.32
2019-02-04T11:54:24.457Z,67.21
2019-02-04T11:55:23.290Z,66.28
2019-02-04T11:56:23.275Z,66.08
2019-02-04T11:57:23.266Z,65.35
2019-02-04T11:58:23.253Z,65.11
2019-02-04T11:59:23.247Z,65.45
2019-02-04T12:00:23.317Z,65.32
2019-02-04T12:01:23.217Z,65.35
2019-02-04T12:02:34.097Z,64.80
2019-02-04T12:03:24.201Z,64.11
2019-02-04T12:04:23.198Z,64.18
2019-02-04T12:05:23.206Z,64.90
2019-02-04T12:06:23.207Z,64.49
2019-02-04T12:07:23.160Z,63.66
2019-02-04T12:08:23.172Z,63.87
2019-02-04T12:09:23.171Z,64.07
2019-02-04T12:10:23.123Z,63.95
2019-02-04T12:11:23.115Z,63.12
2019-02-04T12:12:23.169Z,62.84
2019-02-04T12:13:23.096Z,63.35
2019-02-04T12:14:23.079Z,63.64
2019-02-04T12:15:23.071Z,63.95
2019-02-04T12:16:23.055Z,63.43
2019-02-04T12:17:23.045Z,62.60
2019-02-04T12:18:23.102Z,63.22
2019-02-04T12:19:23.028Z,63.46
2019-02-04T12:20:23.036Z,63.32
2019-02-04T12:21:23.002Z,62.81
2019-02-04T12:22:22.990Z,62.39
2019-02-04T12:23:22.983Z,62.49
2019-02-04T12:24:22.994Z,61.80
2019-02-04T12:25:22.968Z,61.46
2019-02-04T12:26:22.949Z,61.46
2019-02-04T12:27:31.848Z,61.90
2019-02-04T12:28:23.929Z,60.84
2019-02-04T12:29:22.946Z,60.74
2019-02-04T12:30:22.953Z,60.94
2019-02-04T12:31:22.928Z,60.94
2019-02-04T12:32:22.929Z,60.63
2019-02-04T12:33:22.868Z,60.53
2019-02-04T12:34:22.861Z,60.53
2019-02-04T12:35:22.850Z,60.22
2019-02-04T12:36:22.847Z,59.91
2019-02-04T12:37:22.893Z,59.91
2019-02-04T12:38:22.852Z,59.80
2019-02-04T12:39:22.804Z,59.70
2019-02-04T12:40:22.815Z,60.11
2019-02-04T12:41:22.786Z,60.22
2019-02-04T12:42:22.775Z,59.47
2019-02-04T12:43:22.817Z,59.70
2019-02-04T12:44:22.749Z,59.50
2019-02-04T12:45:22.738Z,59.50
2019-02-04T12:46:22.736Z,59.88
2019-02-04T12:47:22.716Z,59.47
2019-02-04T12:48:22.711Z,59.26
2019-02-04T12:49:22.726Z,59.03
2019-02-04T12:50:22.682Z,59.47
2019-02-04T12:51:33.404Z,59.05
2019-02-04T12:52:23.677Z,58.95